aviador You're here:

PAGH Decoded Metar

in
Report Time2018-02-25 10:56:00
UTC Time2018-02-25 11:21:24
Flight Rules vfr VFR
Wind340° at 04 kt
W.Decomp.*RWY 27: 1.4 kt HW 3.8 kt RCW
W.Rank340° ranks 26
Current wind is below 340° avg. (5.3)
Visibility9999 m
Phenomena:N/A
Clouds:Overcast 035 Hf
Expected CloudBase > 800 ft AGL from Temp-Dew spread
Ceiling3,500 ft
Temp-22°C
Dew Point-24°C (84% RH)
AAT-27.1°C
QNH1010 hPa
Raw Report
PAGH 251056Z AUTO 34004KT 10SM OVC035 M22/M24 A2984 RMK AO2 SLP114
T12221244 FZRANO=

Extra information for PAGH:More info

Social comments